sensor_id;sensor_type;location;lat;lon;timestamp;temperature;humidity
9446;DHT22;4761;49.490;10.908;2023-09-30T00:00:56;23.40;58.00
9446;DHT22;4761;49.490;10.908;2023-09-30T00:03:22;23.30;57.90
9446;DHT22;4761;49.490;10.908;2023-09-30T00:05:47;23.40;58.00
9446;DHT22;4761;49.490;10.908;2023-09-30T00:08:13;23.30;57.90
9446;DHT22;4761;49.490;10.908;2023-09-30T00:10:38;23.30;57.90
9446;DHT22;4761;49.490;10.908;2023-09-30T00:13:04;23.30;57.90
9446;DHT22;4761;49.490;10.908;2023-09-30T00:15:32;23.30;57.90
9446;DHT22;4761;49.490;10.908;2023-09-30T00:17:57;23.30;58.00
9446;DHT22;4761;49.490;10.908;2023-09-30T00:20:23;23.40;58.00
9446;DHT22;4761;49.490;10.908;2023-09-30T00:22:49;23.30;58.60
9446;DHT22;4761;49.490;10.908;2023-09-30T00:25:14;23.30;57.90
9446;DHT22;4761;49.490;10.908;2023-09-30T00:27:40;23.40;58.00
9446;DHT22;4761;49.490;10.908;2023-09-30T00:30:06;23.30;57.90
9446;DHT22;4761;49.490;10.908;2023-09-30T00:32:32;23.30;57.90
9446;DHT22;4761;49.490;10.908;2023-09-30T00:35:00;23.30;57.90
9446;DHT22;4761;49.490;10.908;2023-09-30T00:37:26;23.30;58.00
9446;DHT22;4761;49.490;10.908;2023-09-30T00:39:53;23.30;58.00
9446;DHT22;4761;49.490;10.908;2023-09-30T00:42:18;23.30;58.00
9446;DHT22;4761;49.490;10.908;2023-09-30T00:44:46;23.30;58.00
9446;DHT22;4761;49.490;10.908;2023-09-30T00:47:12;23.30;58.00
9446;DHT22;4761;49.490;10.908;2023-09-30T00:49:38;23.30;58.00
9446;DHT22;4761;49.490;10.908;2023-09-30T00:52:04;23.40;58.10
9446;DHT22;4761;49.490;10.908;2023-09-30T00:54:30;23.30;58.00
9446;DHT22;4761;49.490;10.908;2023-09-30T00:56:56;23.30;58.00
9446;DHT22;4761;49.490;10.908;2023-09-30T00:59:23;23.30;58.00
9446;DHT22;4761;49.490;10.908;2023-09-30T01:01:50;23.30;58.10
9446;DHT22;4761;49.490;10.908;2023-09-30T01:04:16;23.30;58.10
9446;DHT22;4761;49.490;10.908;2023-09-30T01:06:41;23.30;58.10
9446;DHT22;4761;49.490;10.908;2023-09-30T01:09:07;23.30;58.10
9446;DHT22;4761;49.490;10.908;2023-09-30T01:11:34;23.30;58.20
9446;DHT22;4761;49.490;10.908;2023-09-30T01:14:00;23.30;58.10
9446;DHT22;4761;49.490;10.908;2023-09-30T01:16:25;23.30;58.20
9446;DHT22;4761;49.490;10.908;2023-09-30T01:18:51;23.30;58.20
9446;DHT22;4761;49.490;10.908;2023-09-30T01:21:18;23.30;58.20
9446;DHT22;4761;49.490;10.908;2023-09-30T01:23:44;23.30;58.20
9446;DHT22;4761;49.490;10.908;2023-09-30T01:26:12;23.30;58.20
9446;DHT22;4761;49.490;10.908;2023-09-30T01:28:38;23.30;58.20
9446;DHT22;4761;49.490;10.908;2023-09-30T01:31:04;23.30;58.30
9446;DHT22;4761;49.490;10.908;2023-09-30T01:33:31;23.30;58.30
9446;DHT22;4761;49.490;10.908;2023-09-30T01:35:57;23.30;58.30
9446;DHT22;4761;49.490;10.908;2023-09-30T01:38:23;23.30;58.30
9446;DHT22;4761;49.490;10.908;2023-09-30T01:40:49;23.30;58.30
9446;DHT22;4761;49.490;10.908;2023-09-30T01:43:15;23.30;58.30
9446;DHT22;4761;49.490;10.908;2023-09-30T01:45:41;23.30;58.30
9446;DHT22;4761;49.490;10.908;2023-09-30T01:48:07;23.30;58.30
9446;DHT22;4761;49.490;10.908;2023-09-30T01:50:36;23.30;58.30
9446;DHT22;4761;49.490;10.908;2023-09-30T01:53:03;23.30;58.30
9446;DHT22;4761;49.490;10.908;2023-09-30T01:55:28;23.30;58.40
9446;DHT22;4761;49.490;10.908;2023-09-30T01:57:54;23.30;58.40
9446;DHT22;4761;49.490;10.908;2023-09-30T02:00:19;23.30;58.40
9446;DHT22;4761;49.490;10.908;2023-09-30T02:02:45;23.30;58.40
9446;DHT22;4761;49.490;10.908;2023-09-30T02:05:11;23.30;58.40
9446;DHT22;4761;49.490;10.908;2023-09-30T02:07:36;23.30;58.40
9446;DHT22;4761;49.490;10.908;2023-09-30T02:10:04;23.30;58.50
9446;DHT22;4761;49.490;10.908;2023-09-30T02:12:30;23.30;58.50
9446;DHT22;4761;49.490;10.908;2023-09-30T02:14:58;23.30;58.60
9446;DHT22;4761;49.490;10.908;2023-09-30T02:17:23;23.30;58.60
9446;DHT22;4761;49.490;10.908;2023-09-30T02:19:49;23.30;58.70
9446;DHT22;4761;49.490;10.908;2023-09-30T02:22:15;23.30;58.70
9446;DHT22;4761;49.490;10.908;2023-09-30T02:24:41;23.30;58.70
9446;DHT22;4761;49.490;10.908;2023-09-30T02:27:06;23.30;58.80
9446;DHT22;4761;49.490;10.908;2023-09-30T02:29:33;23.30;58.80
9446;DHT22;4761;49.490;10.908;2023-09-30T02:31:59;23.30;58.90
9446;DHT22;4761;49.490;10.908;2023-09-30T02:34:24;23.30;58.90
9446;DHT22;4761;49.490;10.908;2023-09-30T02:36:51;23.30;58.90
9446;DHT22;4761;49.490;10.908;2023-09-30T02:39:17;23.30;59.00
9446;DHT22;4761;49.490;10.908;2023-09-30T02:41:43;23.20;58.90
9446;DHT22;4761;49.490;10.908;2023-09-30T02:44:09;23.30;59.00
9446;DHT22;4761;49.490;10.908;2023-09-30T02:46:34;23.30;59.00
9446;DHT22;4761;49.490;10.908;2023-09-30T02:49:03;23.30;59.00
9446;DHT22;4761;49.490;10.908;2023-09-30T02:51:28;23.30;59.00
9446;DHT22;4761;49.490;10.908;2023-09-30T02:53:55;23.30;59.10
9446;DHT22;4761;49.490;10.908;2023-09-30T02:56:21;23.20;59.00
9446;DHT22;4761;49.490;10.908;2023-09-30T02:58:50;23.30;59.20
9446;DHT22;4761;49.490;10.908;2023-09-30T03:01:17;23.20;59.10
9446;DHT22;4761;49.490;10.908;2023-09-30T03:03:43;23.20;59.20
9446;DHT22;4761;49.490;10.908;2023-09-30T03:06:12;23.30;59.30
9446;DHT22;4761;49.490;10.908;2023-09-30T03:08:38;23.20;59.40
9446;DHT22;4761;49.490;10.908;2023-09-30T03:11:03;23.20;59.40
9446;DHT22;4761;49.490;10.908;2023-09-30T03:13:30;23.20;59.50
9446;DHT22;4761;49.490;10.908;2023-09-30T03:15:56;23.20;59.60
9446;DHT22;4761;49.490;10.908;2023-09-30T03:18:22;23.20;59.20
9446;DHT22;4761;49.490;10.908;2023-09-30T03:20:52;23.20;59.70
9446;DHT22;4761;49.490;10.908;2023-09-30T03:23:22;23.20;59.80
9446;DHT22;4761;49.490;10.908;2023-09-30T03:25:47;23.20;60.50
9446;DHT22;4761;49.490;10.908;2023-09-30T03:28:13;23.20;59.80
9446;DHT22;4761;49.490;10.908;2023-09-30T03:30:40;23.20;59.90
9446;DHT22;4761;49.490;10.908;2023-09-30T03:33:05;23.20;59.90
9446;DHT22;4761;49.490;10.908;2023-09-30T03:35:31;23.20;60.00
9446;DHT22;4761;49.490;10.908;2023-09-30T03:37:57;23.20;59.90
9446;DHT22;4761;49.490;10.908;2023-09-30T03:40:23;23.10;59.90
9446;DHT22;4761;49.490;10.908;2023-09-30T03:42:54;23.20;59.90
9446;DHT22;4761;49.490;10.908;2023-09-30T03:45:20;23.20;59.90
9446;DHT22;4761;49.490;10.908;2023-09-30T03:47:45;23.20;60.00
9446;DHT22;4761;49.490;10.908;2023-09-30T03:50:13;23.10;59.90
9446;DHT22;4761;49.490;10.908;2023-09-30T03:52:43;23.10;59.90
9446;DHT22;4761;49.490;10.908;2023-09-30T03:55:11;23.10;59.90
9446;DHT22;4761;49.490;10.908;2023-09-30T03:57:37;23.10;59.90
9446;DHT22;4761;49.490;10.908;2023-09-30T04:00:03;23.10;60.00
9446;DHT22;4761;49.490;10.908;2023-09-30T04:02:32;23.10;59.90
9446;DHT22;4761;49.490;10.908;2023-09-30T04:04:57;23.10;60.00
9446;DHT22;4761;49.490;10.908;2023-09-30T04:07:24;23.10;60.00
9446;DHT22;4761;49.490;10.908;2023-09-30T04:09:55;23.10;60.00
9446;DHT22;4761;49.490;10.908;2023-09-30T04:12:21;23.10;60.00
9446;DHT22;4761;49.490;10.908;2023-09-30T04:14:49;23.10;60.00
9446;DHT22;4761;49.490;10.908;2023-09-30T04:17:15;23.10;60.10
9446;DHT22;4761;49.490;10.908;2023-09-30T04:19:40;23.10;60.00
9446;DHT22;4761;49.490;10.908;2023-09-30T04:22:06;23.10;60.00
9446;DHT22;4761;49.490;10.908;2023-09-30T04:24:31;23.10;60.10
9446;DHT22;4761;49.490;10.908;2023-09-30T04:26:57;23.10;60.10
9446;DHT22;4761;49.490;10.908;2023-09-30T04:29:28;23.10;60.10
9446;DHT22;4761;49.490;10.908;2023-09-30T04:31:55;23.10;60.00
9446;DHT22;4761;49.490;10.908;2023-09-30T04:34:20;23.10;60.00
9446;DHT22;4761;49.490;10.908;2023-09-30T04:36:47;23.10;60.00
9446;DHT22;4761;49.490;10.908;2023-09-30T04:39:13;23.00;60.00
9446;DHT22;4761;49.490;10.908;2023-09-30T04:41:40;23.10;60.00
9446;DHT22;4761;49.490;10.908;2023-09-30T04:44:07;23.10;60.10
9446;DHT22;4761;49.490;10.908;2023-09-30T04:46:38;23.10;60.00
9446;DHT22;4761;49.490;10.908;2023-09-30T04:49:14;23.00;59.90
9446;DHT22;4761;49.490;10.908;2023-09-30T04:51:40;23.10;60.00
9446;DHT22;4761;49.490;10.908;2023-09-30T04:54:05;23.00;59.90
9446;DHT22;4761;49.490;10.908;2023-09-30T04:56:36;23.00;59.80
9446;DHT22;4761;49.490;10.908;2023-09-30T04:59:02;23.00;59.90
9446;DHT22;4761;49.490;10.908;2023-09-30T05:01:29;23.00;59.80
9446;DHT22;4761;49.490;10.908;2023-09-30T05:03:55;23.00;59.90
9446;DHT22;4761;49.490;10.908;2023-09-30T05:06:21;23.00;59.80
9446;DHT22;4761;49.490;10.908;2023-09-30T05:08:47;23.10;59.90
9446;DHT22;4761;49.490;10.908;2023-09-30T05:11:13;23.00;59.80
9446;DHT22;4761;49.490;10.908;2023-09-30T05:13:38;23.00;59.70
9446;DHT22;4761;49.490;10.908;2023-09-30T05:16:04;23.00;59.80
9446;DHT22;4761;49.490;10.908;2023-09-30T05:18:30;23.00;59.80
9446;DHT22;4761;49.490;10.908;2023-09-30T05:20:55;23.00;59.80
9446;DHT22;4761;49.490;10.908;2023-09-30T05:23:21;23.00;59.70
9446;DHT22;4761;49.490;10.908;2023-09-30T05:25:47;23.00;59.70
9446;DHT22;4761;49.490;10.908;2023-09-30T05:28:13;23.00;59.70
9446;DHT22;4761;49.490;10.908;2023-09-30T05:30:39;23.00;59.70
9446;DHT22;4761;49.490;10.908;2023-09-30T05:33:06;23.00;59.80
9446;DHT22;4761;49.490;10.908;2023-09-30T05:35:32;23.00;59.80
9446;DHT22;4761;49.490;10.908;2023-09-30T05:37:58;23.00;59.80
9446;DHT22;4761;49.490;10.908;2023-09-30T05:40:23;23.00;59.80
9446;DHT22;4761;49.490;10.908;2023-09-30T05:42:53;23.00;59.90
9446;DHT22;4761;49.490;10.908;2023-09-30T05:45:19;23.00;59.90
9446;DHT22;4761;49.490;10.908;2023-09-30T05:47:45;23.00;60.00
9446;DHT22;4761;49.490;10.908;2023-09-30T05:50:11;23.00;60.00
9446;DHT22;4761;49.490;10.908;2023-09-30T05:52:41;23.00;60.00
9446;DHT22;4761;49.490;10.908;2023-09-30T05:55:07;23.00;60.00
9446;DHT22;4761;49.490;10.908;2023-09-30T05:57:33;23.00;60.00
9446;DHT22;4761;49.490;10.908;2023-09-30T05:59:59;23.00;60.00
9446;DHT22;4761;49.490;10.908;2023-09-30T06:02:24;23.00;60.10
9446;DHT22;4761;49.490;10.908;2023-09-30T06:04:50;23.10;60.20
9446;DHT22;4761;49.490;10.908;2023-09-30T06:07:18;23.00;60.10
9446;DHT22;4761;49.490;10.908;2023-09-30T06:09:45;23.00;60.10
9446;DHT22;4761;49.490;10.908;2023-09-30T06:12:13;23.00;60.10
9446;DHT22;4761;49.490;10.908;2023-09-30T06:14:39;23.00;60.20
9446;DHT22;4761;49.490;10.908;2023-09-30T06:17:06;23.00;60.20
9446;DHT22;4761;49.490;10.908;2023-09-30T06:19:32;23.00;60.30
9446;DHT22;4761;49.490;10.908;2023-09-30T06:21:59;23.00;60.30
9446;DHT22;4761;49.490;10.908;2023-09-30T06:24:24;23.00;60.30
9446;DHT22;4761;49.490;10.908;2023-09-30T06:26:50;23.00;60.30
9446;DHT22;4761;49.490;10.908;2023-09-30T06:29:16;23.00;60.40
9446;DHT22;4761;49.490;10.908;2023-09-30T06:31:42;23.00;60.40
9446;DHT22;4761;49.490;10.908;2023-09-30T06:34:08;23.00;60.40
9446;DHT22;4761;49.490;10.908;2023-09-30T06:36:36;23.00;60.40
9446;DHT22;4761;49.490;10.908;2023-09-30T06:39:03;23.00;60.40
9446;DHT22;4761;49.490;10.908;2023-09-30T06:41:31;23.00;60.40
9446;DHT22;4761;49.490;10.908;2023-09-30T06:43:57;23.00;60.40
9446;DHT22;4761;49.490;10.908;2023-09-30T06:46:22;23.00;60.50
9446;DHT22;4761;49.490;10.908;2023-09-30T06:48:49;23.00;60.50
9446;DHT22;4761;49.490;10.908;2023-09-30T06:51:17;23.00;60.60
9446;DHT22;4761;49.490;10.908;2023-09-30T06:53:43;23.00;60.80
9446;DHT22;4761;49.490;10.908;2023-09-30T06:56:09;23.00;60.70
9446;DHT22;4761;49.490;10.908;2023-09-30T06:58:34;23.00;60.60
9446;DHT22;4761;49.490;10.908;2023-09-30T07:01:00;23.10;60.70
9446;DHT22;4761;49.490;10.908;2023-09-30T07:03:26;23.10;60.70
9446;DHT22;4761;49.490;10.908;2023-09-30T07:05:52;23.10;60.60
9446;DHT22;4761;49.490;10.908;2023-09-30T07:08:19;23.10;60.50
9446;DHT22;4761;49.490;10.908;2023-09-30T07:10:46;23.10;60.50
9446;DHT22;4761;49.490;10.908;2023-09-30T07:13:14;23.10;60.40
9446;DHT22;4761;49.490;10.908;2023-09-30T07:15:40;23.10;60.40
9446;DHT22;4761;49.490;10.908;2023-09-30T07:18:06;23.10;60.30
9446;DHT22;4761;49.490;10.908;2023-09-30T07:20:32;23.10;60.40
9446;DHT22;4761;49.490;10.908;2023-09-30T07:22:59;23.10;60.40
9446;DHT22;4761;49.490;10.908;2023-09-30T07:25:26;23.10;60.40
9446;DHT22;4761;49.490;10.908;2023-09-30T07:27:52;23.10;60.50
9446;DHT22;4761;49.490;10.908;2023-09-30T07:30:17;23.10;60.50
9446;DHT22;4761;49.490;10.908;2023-09-30T07:32:43;23.10;60.50
9446;DHT22;4761;49.490;10.908;2023-09-30T07:35:09;23.10;60.50
9446;DHT22;4761;49.490;10.908;2023-09-30T07:37:35;23.10;61.30
9446;DHT22;4761;49.490;10.908;2023-09-30T07:40:01;23.20;60.60
9446;DHT22;4761;49.490;10.908;2023-09-30T07:42:26;23.20;60.70
9446;DHT22;4761;49.490;10.908;2023-09-30T07:44:52;23.10;60.60
9446;DHT22;4761;49.490;10.908;2023-09-30T07:47:19;23.20;60.70
9446;DHT22;4761;49.490;10.908;2023-09-30T07:49:44;23.20;60.80
9446;DHT22;4761;49.490;10.908;2023-09-30T07:52:10;23.20;60.80
9446;DHT22;4761;49.490;10.908;2023-09-30T07:54:36;23.10;60.60
9446;DHT22;4761;49.490;10.908;2023-09-30T07:57:02;23.20;60.80
9446;DHT22;4761;49.490;10.908;2023-09-30T07:59:27;23.20;60.80
9446;DHT22;4761;49.490;10.908;2023-09-30T08:01:53;23.10;60.80
9446;DHT22;4761;49.490;10.908;2023-09-30T08:04:19;23.20;60.90
9446;DHT22;4761;49.490;10.908;2023-09-30T08:06:44;23.20;60.90
9446;DHT22;4761;49.490;10.908;2023-09-30T08:09:13;23.20;60.90
9446;DHT22;4761;49.490;10.908;2023-09-30T08:11:38;23.20;60.90
9446;DHT22;4761;49.490;10.908;2023-09-30T08:14:04;23.20;60.90
9446;DHT22;4761;49.490;10.908;2023-09-30T08:16:33;23.20;60.90
9446;DHT22;4761;49.490;10.908;2023-09-30T08:18:58;23.20;61.00
9446;DHT22;4761;49.490;10.908;2023-09-30T08:21:24;23.20;61.00
9446;DHT22;4761;49.490;10.908;2023-09-30T08:23:49;23.20;61.10
9446;DHT22;4761;49.490;10.908;2023-09-30T08:26:15;23.20;61.00
9446;DHT22;4761;49.490;10.908;2023-09-30T08:28:40;23.20;61.10
9446;DHT22;4761;49.490;10.908;2023-09-30T08:31:07;23.20;61.10
9446;DHT22;4761;49.490;10.908;2023-09-30T08:33:34;23.20;61.10
9446;DHT22;4761;49.490;10.908;2023-09-30T08:36:04;23.20;61.10
9446;DHT22;4761;49.490;10.908;2023-09-30T08:38:38;23.20;61.10
9446;DHT22;4761;49.490;10.908;2023-09-30T08:41:04;23.20;61.10
9446;DHT22;4761;49.490;10.908;2023-09-30T08:43:30;23.20;61.10
9446;DHT22;4761;49.490;10.908;2023-09-30T08:46:00;23.20;61.00
9446;DHT22;4761;49.490;10.908;2023-09-30T08:48:28;23.20;61.00
9446;DHT22;4761;49.490;10.908;2023-09-30T08:50:56;23.20;61.10
9446;DHT22;4761;49.490;10.908;2023-09-30T08:53:23;23.20;60.90
9446;DHT22;4761;49.490;10.908;2023-09-30T08:55:56;23.20;60.90
9446;DHT22;4761;49.490;10.908;2023-09-30T08:58:27;23.20;60.90
9446;DHT22;4761;49.490;10.908;2023-09-30T09:00:52;23.20;60.90
9446;DHT22;4761;49.490;10.908;2023-09-30T09:03:19;23.20;61.00
9446;DHT22;4761;49.490;10.908;2023-09-30T09:05:45;23.20;61.10
9446;DHT22;4761;49.490;10.908;2023-09-30T09:08:11;23.20;60.90
9446;DHT22;4761;49.490;10.908;2023-09-30T09:10:57;23.20;60.90
9446;DHT22;4761;49.490;10.908;2023-09-30T09:13:24;23.20;60.90
9446;DHT22;4761;49.490;10.908;2023-09-30T09:16:05;23.20;60.90
9446;DHT22;4761;49.490;10.908;2023-09-30T09:18:32;23.20;61.00
9446;DHT22;4761;49.490;10.908;2023-09-30T09:21:14;23.20;61.00
9446;DHT22;4761;49.490;10.908;2023-09-30T09:23:45;23.20;61.00
9446;DHT22;4761;49.490;10.908;2023-09-30T09:26:30;23.20;61.00
9446;DHT22;4761;49.490;10.908;2023-09-30T09:29:04;23.20;61.00
9446;DHT22;4761;49.490;10.908;2023-09-30T09:31:35;23.20;61.00
9446;DHT22;4761;49.490;10.908;2023-09-30T09:34:03;23.20;61.00
9446;DHT22;4761;49.490;10.908;2023-09-30T09:36:40;23.20;61.00
9446;DHT22;4761;49.490;10.908;2023-09-30T09:39:07;23.30;61.10
9446;DHT22;4761;49.490;10.908;2023-09-30T09:41:32;23.30;61.10
9446;DHT22;4761;49.490;10.908;2023-09-30T09:43:59;23.30;61.20
9446;DHT22;4761;49.490;10.908;2023-09-30T09:46:25;23.30;61.20
9446;DHT22;4761;49.490;10.908;2023-09-30T09:48:53;23.30;61.20
9446;DHT22;4761;49.490;10.908;2023-09-30T09:51:20;23.30;61.20
9446;DHT22;4761;49.490;10.908;2023-09-30T09:53:46;23.30;61.20
9446;DHT22;4761;49.490;10.908;2023-09-30T09:56:15;23.30;61.30
9446;DHT22;4761;49.490;10.908;2023-09-30T09:58:42;23.30;61.20
9446;DHT22;4761;49.490;10.908;2023-09-30T10:01:10;23.30;61.20
9446;DHT22;4761;49.490;10.908;2023-09-30T10:03:37;23.30;61.20
9446;DHT22;4761;49.490;10.908;2023-09-30T10:06:03;23.30;61.20
9446;DHT22;4761;49.490;10.908;2023-09-30T10:08:39;23.30;61.20
9446;DHT22;4761;49.490;10.908;2023-09-30T10:11:05;23.30;61.20
9446;DHT22;4761;49.490;10.908;2023-09-30T10:13:53;23.30;61.90
9446;DHT22;4761;49.490;10.908;2023-09-30T10:16:48;23.40;61.30
9446;DHT22;4761;49.490;10.908;2023-09-30T10:19:21;23.30;61.20
9446;DHT22;4761;49.490;10.908;2023-09-30T10:24:44;23.30;61.20
9446;DHT22;4761;49.490;10.908;2023-09-30T10:29:47;23.30;61.20
9446;DHT22;4761;49.490;10.908;2023-09-30T10:32:13;23.30;61.30
9446;DHT22;4761;49.490;10.908;2023-09-30T10:34:50;23.30;61.30
9446;DHT22;4761;49.490;10.908;2023-09-30T10:37:24;23.30;61.30
9446;DHT22;4761;49.490;10.908;2023-09-30T10:39:53;23.30;61.30
9446;DHT22;4761;49.490;10.908;2023-09-30T10:42:46;23.30;61.30
9446;DHT22;4761;49.490;10.908;2023-09-30T10:51:19;23.30;61.30
9446;DHT22;4761;49.490;10.908;2023-09-30T10:53:53;23.30;61.30
9446;DHT22;4761;49.490;10.908;2023-09-30T10:56:22;23.30;61.30
9446;DHT22;4761;49.490;10.908;2023-09-30T10:58:50;23.30;61.20
9446;DHT22;4761;49.490;10.908;2023-09-30T11:01:21;23.30;61.20
9446;DHT22;4761;49.490;10.908;2023-09-30T11:03:48;23.30;61.10
9446;DHT22;4761;49.490;10.908;2023-09-30T11:06:18;23.30;61.10
9446;DHT22;4761;49.490;10.908;2023-09-30T11:08:54;23.30;61.10
9446;DHT22;4761;49.490;10.908;2023-09-30T11:14:00;23.30;60.90
9446;DHT22;4761;49.490;10.908;2023-09-30T11:16:26;23.30;60.90
9446;DHT22;4761;49.490;10.908;2023-09-30T11:18:54;23.30;60.90
9446;DHT22;4761;49.490;10.908;2023-09-30T11:21:21;23.30;60.80
9446;DHT22;4761;49.490;10.908;2023-09-30T11:23:47;23.30;60.80
9446;DHT22;4761;49.490;10.908;2023-09-30T11:26:13;23.30;60.80
9446;DHT22;4761;49.490;10.908;2023-09-30T11:28:41;23.30;60.70
9446;DHT22;4761;49.490;10.908;2023-09-30T11:31:15;23.30;60.70
9446;DHT22;4761;49.490;10.908;2023-09-30T11:33:54;23.40;60.80
9446;DHT22;4761;49.490;10.908;2023-09-30T11:36:21;23.30;60.60
9446;DHT22;4761;49.490;10.908;2023-09-30T11:38:49;23.30;60.60
9446;DHT22;4761;49.490;10.908;2023-09-30T11:41:16;23.30;60.60
9446;DHT22;4761;49.490;10.908;2023-09-30T11:44:03;23.30;60.60
9446;DHT22;4761;49.490;10.908;2023-09-30T11:46:53;23.30;60.50
9446;DHT22;4761;49.490;10.908;2023-09-30T11:49:36;23.40;60.70
9446;DHT22;4761;49.490;10.908;2023-09-30T11:52:07;23.30;60.60
9446;DHT22;4761;49.490;10.908;2023-09-30T11:54:44;23.30;60.60
9446;DHT22;4761;49.490;10.908;2023-09-30T11:57:15;23.30;60.50
9446;DHT22;4761;49.490;10.908;2023-09-30T11:59:41;23.30;60.40
9446;DHT22;4761;49.490;10.908;2023-09-30T12:02:11;23.30;60.40
9446;DHT22;4761;49.490;10.908;2023-09-30T12:04:38;23.40;60.40
9446;DHT22;4761;49.490;10.908;2023-09-30T12:07:04;23.30;60.30
9446;DHT22;4761;49.490;10.908;2023-09-30T12:09:32;23.40;60.40
9446;DHT22;4761;49.490;10.908;2023-09-30T12:11:58;23.40;60.30
9446;DHT22;4761;49.490;10.908;2023-09-30T12:14:24;23.40;60.30
9446;DHT22;4761;49.490;10.908;2023-09-30T12:16:50;23.40;60.20
9446;DHT22;4761;49.490;10.908;2023-09-30T12:19:17;23.40;60.10
9446;DHT22;4761;49.490;10.908;2023-09-30T12:21:44;23.40;60.10
9446;DHT22;4761;49.490;10.908;2023-09-30T12:24:14;23.40;60.00
9446;DHT22;4761;49.490;10.908;2023-09-30T12:26:45;23.40;59.90
9446;DHT22;4761;49.490;10.908;2023-09-30T12:29:23;23.40;59.90
9446;DHT22;4761;49.490;10.908;2023-09-30T12:31:50;23.40;59.70
9446;DHT22;4761;49.490;10.908;2023-09-30T12:34:16;23.30;59.00
9446;DHT22;4761;49.490;10.908;2023-09-30T12:36:42;23.30;58.40
9446;DHT22;4761;49.490;10.908;2023-09-30T12:39:09;23.20;58.00
9446;DHT22;4761;49.490;10.908;2023-09-30T12:41:44;23.20;58.60
9446;DHT22;4761;49.490;10.908;2023-09-30T12:44:10;23.10;57.90
9446;DHT22;4761;49.490;10.908;2023-09-30T12:46:36;23.10;57.70
9446;DHT22;4761;49.490;10.908;2023-09-30T12:49:08;23.10;57.60
9446;DHT22;4761;49.490;10.908;2023-09-30T12:51:35;23.10;57.40
9446;DHT22;4761;49.490;10.908;2023-09-30T12:54:00;23.10;57.30
9446;DHT22;4761;49.490;10.908;2023-09-30T12:56:26;23.10;57.10
9446;DHT22;4761;49.490;10.908;2023-09-30T12:58:54;23.10;57.00
9446;DHT22;4761;49.490;10.908;2023-09-30T13:01:20;23.20;57.00
9446;DHT22;4761;49.490;10.908;2023-09-30T13:03:46;23.10;56.80
9446;DHT22;4761;49.490;10.908;2023-09-30T13:06:12;23.10;56.80
9446;DHT22;4761;49.490;10.908;2023-09-30T13:08:38;23.20;57.00
9446;DHT22;4761;49.490;10.908;2023-09-30T13:11:04;23.20;57.00
9446;DHT22;4761;49.490;10.908;2023-09-30T13:13:31;23.20;57.30
9446;DHT22;4761;49.490;10.908;2023-09-30T13:15:59;23.20;58.30
9446;DHT22;4761;49.490;10.908;2023-09-30T13:18:25;23.30;57.70
9446;DHT22;4761;49.490;10.908;2023-09-30T13:20:50;23.30;57.80
9446;DHT22;4761;49.490;10.908;2023-09-30T13:23:17;23.40;57.80
9446;DHT22;4761;49.490;10.908;2023-09-30T13:25:44;23.40;57.80
9446;DHT22;4761;49.490;10.908;2023-09-30T13:28:09;23.50;57.80
9446;DHT22;4761;49.490;10.908;2023-09-30T13:30:35;23.50;57.80
9446;DHT22;4761;49.490;10.908;2023-09-30T13:33:01;23.50;57.80
9446;DHT22;4761;49.490;10.908;2023-09-30T13:35:27;23.60;57.90
9446;DHT22;4761;49.490;10.908;2023-09-30T13:37:52;23.60;57.90
9446;DHT22;4761;49.490;10.908;2023-09-30T13:40:18;23.60;57.90
9446;DHT22;4761;49.490;10.908;2023-09-30T13:42:44;23.60;57.80
9446;DHT22;4761;49.490;10.908;2023-09-30T13:45:10;23.60;57.80
9446;DHT22;4761;49.490;10.908;2023-09-30T13:47:36;23.60;57.80
9446;DHT22;4761;49.490;10.908;2023-09-30T13:50:02;23.60;57.90
9446;DHT22;4761;49.490;10.908;2023-09-30T13:52:33;23.60;57.90
9446;DHT22;4761;49.490;10.908;2023-09-30T13:54:59;23.60;57.80
9446;DHT22;4761;49.490;10.908;2023-09-30T13:57:24;23.60;57.80
9446;DHT22;4761;49.490;10.908;2023-09-30T13:59:50;23.60;57.80
9446;DHT22;4761;49.490;10.908;2023-09-30T14:02:15;23.60;57.80
9446;DHT22;4761;49.490;10.908;2023-09-30T14:04:41;23.60;57.80
9446;DHT22;4761;49.490;10.908;2023-09-30T14:07:06;23.60;57.80
9446;DHT22;4761;49.490;10.908;2023-09-30T14:09:33;23.60;57.80
9446;DHT22;4761;49.490;10.908;2023-09-30T14:11:59;23.60;57.80
9446;DHT22;4761;49.490;10.908;2023-09-30T14:14:25;23.60;57.80
9446;DHT22;4761;49.490;10.908;2023-09-30T14:16:51;23.60;57.80
9446;DHT22;4761;49.490;10.908;2023-09-30T14:19:17;23.60;57.80
9446;DHT22;4761;49.490;10.908;2023-09-30T14:21:42;23.60;57.80
9446;DHT22;4761;49.490;10.908;2023-09-30T14:24:08;23.60;57.80
9446;DHT22;4761;49.490;10.908;2023-09-30T14:26:34;23.60;57.80
9446;DHT22;4761;49.490;10.908;2023-09-30T14:29:00;23.60;57.90
9446;DHT22;4761;49.490;10.908;2023-09-30T14:31:25;23.60;57.90
9446;DHT22;4761;49.490;10.908;2023-09-30T14:33:51;23.60;57.90
9446;DHT22;4761;49.490;10.908;2023-09-30T14:36:18;23.60;58.00
9446;DHT22;4761;49.490;10.908;2023-09-30T14:38:44;23.60;58.00
9446;DHT22;4761;49.490;10.908;2023-09-30T14:41:11;23.60;58.00
9446;DHT22;4761;49.490;10.908;2023-09-30T14:43:38;23.60;58.00
9446;DHT22;4761;49.490;10.908;2023-09-30T14:46:04;23.60;58.00
9446;DHT22;4761;49.490;10.908;2023-09-30T14:48:30;23.60;58.00
9446;DHT22;4761;49.490;10.908;2023-09-30T14:50:55;23.60;58.00
9446;DHT22;4761;49.490;10.908;2023-09-30T14:53:22;23.50;58.00
9446;DHT22;4761;49.490;10.908;2023-09-30T14:55:48;23.50;58.10
9446;DHT22;4761;49.490;10.908;2023-09-30T14:58:13;23.60;58.20
9446;DHT22;4761;49.490;10.908;2023-09-30T15:00:39;23.50;58.10
9446;DHT22;4761;49.490;10.908;2023-09-30T15:03:05;23.50;58.60
9446;DHT22;4761;49.490;10.908;2023-09-30T15:05:32;23.50;58.10
9446;DHT22;4761;49.490;10.908;2023-09-30T15:07:58;23.50;58.10
9446;DHT22;4761;49.490;10.908;2023-09-30T15:10:25;23.50;58.10
9446;DHT22;4761;49.490;10.908;2023-09-30T15:12:50;23.50;58.20
9446;DHT22;4761;49.490;10.908;2023-09-30T15:15:16;23.50;58.10
9446;DHT22;4761;49.490;10.908;2023-09-30T15:17:42;23.50;58.10
9446;DHT22;4761;49.490;10.908;2023-09-30T15:20:08;23.50;58.10
9446;DHT22;4761;49.490;10.908;2023-09-30T15:22:33;23.50;58.10
9446;DHT22;4761;49.490;10.908;2023-09-30T15:24:59;23.50;58.10
9446;DHT22;4761;49.490;10.908;2023-09-30T15:27:25;23.50;58.70
9446;DHT22;4761;49.490;10.908;2023-09-30T15:29:51;23.50;58.10
9446;DHT22;4761;49.490;10.908;2023-09-30T15:32:16;23.50;58.10
9446;DHT22;4761;49.490;10.908;2023-09-30T15:34:42;23.50;58.00
9446;DHT22;4761;49.490;10.908;2023-09-30T15:37:08;23.50;58.60
9446;DHT22;4761;49.490;10.908;2023-09-30T15:39:39;23.50;58.00
9446;DHT22;4761;49.490;10.908;2023-09-30T15:42:05;23.50;58.00
9446;DHT22;4761;49.490;10.908;2023-09-30T15:44:31;23.50;57.90
9446;DHT22;4761;49.490;10.908;2023-09-30T15:46:56;23.50;57.90
9446;DHT22;4761;49.490;10.908;2023-09-30T15:49:22;23.40;57.80
9446;DHT22;4761;49.490;10.908;2023-09-30T15:51:48;23.50;57.90
9446;DHT22;4761;49.490;10.908;2023-09-30T15:54:13;23.40;57.80
9446;DHT22;4761;49.490;10.908;2023-09-30T15:56:40;23.40;57.80
9446;DHT22;4761;49.490;10.908;2023-09-30T15:59:07;23.40;57.80